Time;durP1;ratioP1;P1;durP2;ratioP2;P2;SDS_P1;SDS_P2;PMS_P1;PMS_P2;Temp;Humidity;BMP_temperature;BMP_pressure;BME280_temperature;BME280_humidity;BME280_pressure;Samples;Min_cycle;Max_cycle;Signal;HPM_P1;HPM_P2
2022/07/04 00:00:48;;;;;;;9.80;3.00;;;;;;;-143.84;44.99;44999.56;5072188;28;20437;-77
2022/07/04 00:03:16;;;;;;;2.80;2.53;;;;;;;-143.84;44.75;44980.53;5072052;28;20918;-78
2022/07/04 00:05:44;;;;;;;3.53;3.00;;;;;;;-143.84;43.44;44967.19;5071956;28;20443;-77
2022/07/04 00:08:11;;;;;;;3.20;2.50;;;;;;;-143.84;43.30;45007.19;5072121;28;20441;-77
2022/07/04 00:10:42;;;;;;;2.30;2.10;;;;;;;-143.84;43.73;44982.41;5071554;28;20483;-77
2022/07/04 00:13:09;;;;;;;4.93;2.80;;;;;;;-143.84;43.13;45005.28;5072263;28;20441;-77
2022/07/04 00:15:36;;;;;;;7.60;2.80;;;;;;;-143.84;43.20;44997.66;5071564;28;20441;-77
2022/07/04 00:18:03;;;;;;;11.40;2.80;;;;;;;-143.84;43.20;45001.47;5071564;28;20429;-77
2022/07/04 00:20:32;;;;;;;3.77;3.43;;;;;;;-143.84;41.91;45001.47;5071522;28;20494;-76
2022/07/04 00:22:59;;;;;;;3.40;3.10;;;;;;;-143.84;42.04;44967.19;5070348;28;20510;-76
2022/07/04 00:25:26;;;;;;;7.00;3.30;;;;;;;-143.84;41.74;44986.22;5068564;28;20890;-76
2022/07/04 00:27:54;;;;;;;3.80;2.70;;;;;;;-143.84;41.49;44986.22;5070945;28;20816;-76
2022/07/04 00:30:21;;;;;;;2.70;2.50;;;;;;;-143.84;40.86;44997.66;5074415;28;20487;-76
2022/07/04 00:32:48;;;;;;;5.10;2.60;;;;;;;-143.84;41.20;44984.31;5073949;28;20433;-76
2022/07/04 00:35:15;;;;;;;3.80;2.40;;;;;;;-143.84;40.63;45009.09;5073852;28;20498;-76
2022/07/04 00:37:44;;;;;;;6.83;2.67;;;;;;;-143.84;39.12;44971.00;5073759;28;20494;-76
2022/07/04 00:40:12;;;;;;;4.97;2.20;;;;;;;-143.84;40.03;45001.47;5073592;28;20441;-75
2022/07/04 00:42:39;;;;;;;6.00;3.57;;;;;;;-143.84;39.08;44995.75;5073309;28;20441;-76
2022/07/04 00:45:07;;;;;;;8.90;2.60;;;;;;;-143.84;38.52;44986.22;5075394;28;20468;-77
2022/07/04 00:47:34;;;;;;;3.30;2.50;;;;;;;-143.84;38.89;44991.94;5074889;28;20452;-77
2022/07/04 00:50:01;;;;;;;6.13;2.70;;;;;;;-143.84;39.95;44991.94;5072552;28;20898;-77
2022/07/04 00:52:29;;;;;;;4.93;2.90;;;;;;;-143.84;39.80;45007.19;5071334;28;20441;-77
2022/07/04 00:55:00;;;;;;;2.73;2.50;;;;;;;-143.84;38.21;44991.94;5074416;28;20436;-77
2022/07/04 00:57:27;;;;;;;4.20;2.97;;;;;;;-143.84;38.67;44993.84;5074653;28;20961;-78
2022/07/04 00:59:54;;;;;;;7.10;2.57;;;;;;;-143.84;38.11;44995.75;5074667;28;20440;-78
2022/07/04 01:02:21;;;;;;;4.03;2.40;;;;;;;-143.84;37.92;44972.91;5075199;28;20436;-77
2022/07/04 01:04:49;;;;;;;3.10;2.70;;;;;;;-143.84;38.25;45001.47;5074501;28;20476;-77
2022/07/04 01:07:16;;;;;;;3.60;2.43;;;;;;;-143.84;38.08;44997.66;5074672;28;20436;-77
2022/07/04 01:09:44;;;;;;;6.30;2.20;;;;;;;-143.84;37.75;44969.09;5074685;28;20818;-77
2022/07/04 01:12:25;;;;;;;3.90;2.60;;;;;;;-143.84;37.41;44980.53;5074591;28;20425;-77
2022/07/04 01:14:52;;;;;;;2.67;2.47;;;;;;;-143.84;37.94;44991.94;5075167;28;20444;-77
2022/07/04 01:17:19;;;;;;;2.57;2.37;;;;;;;-143.84;38.52;45001.47;5074396;28;20747;-77
2022/07/04 01:19:46;;;;;;;6.70;2.93;;;;;;;-143.84;38.71;44986.22;5074645;28;20516;-77
2022/07/04 01:22:16;;;;;;;4.47;2.60;;;;;;;-143.84;39.10;44965.28;5074073;28;20433;-77
2022/07/04 01:24:43;;;;;;;4.33;2.50;;;;;;;-143.84;39.43;44999.56;5074238;28;20494;-77
2022/07/04 01:27:10;;;;;;;3.83;2.47;;;;;;;-143.84;38.53;44982.41;5074657;28;20453;-77
2022/07/04 01:29:38;;;;;;;3.10;2.80;;;;;;;-143.84;39.00;45014.78;5074632;28;20988;-77
2022/07/04 01:32:06;;;;;;;2.50;2.20;;;;;;;-143.84;38.63;45001.47;5074359;28;20437;-77
2022/07/04 01:34:33;;;;;;;2.60;2.27;;;;;;;-143.84;39.04;44995.75;5074037;28;20433;-77
2022/07/04 01:37:01;;;;;;;3.73;2.50;;;;;;;-143.84;38.51;44980.53;5074504;28;20923;-77
2022/07/04 01:39:30;;;;;;;2.97;2.77;;;;;;;-143.84;38.43;44995.75;5073951;28;20486;-77
2022/07/04 01:41:57;;;;;;;5.97;2.87;;;;;;;-143.84;38.38;45005.28;5074073;28;20962;-77
2022/07/04 01:44:24;;;;;;;2.53;2.33;;;;;;;-143.84;38.18;44972.91;5073965;28;20472;-77
2022/07/04 01:46:52;;;;;;;4.97;3.23;;;;;;;-143.84;38.17;44974.81;5074049;28;20449;-77
2022/07/04 01:49:19;;;;;;;5.03;2.47;;;;;;;-143.84;38.59;44988.13;5074194;28;20434;-77
2022/07/04 01:51:46;;;;;;;11.33;3.37;;;;;;;-143.84;38.09;44991.94;5073863;28;20441;-77
2022/07/04 01:54:13;;;;;;;10.93;2.70;;;;;;;-143.84;38.68;44982.41;5073936;28;20436;-77
2022/07/04 01:56:42;;;;;;;2.60;2.50;;;;;;;-143.84;38.58;44980.53;5073423;28;20441;-77
2022/07/04 01:59:10;;;;;;;4.60;2.60;;;;;;;-143.84;38.63;44980.53;5073904;28;20441;-78
2022/07/04 02:01:37;;;;;;;2.73;2.50;;;;;;;-143.84;38.99;44972.91;5074018;28;20433;-77
2022/07/04 02:04:06;;;;;;;4.90;2.63;;;;;;;-143.84;39.06;45005.28;5073716;28;20429;-77
2022/07/04 02:06:33;;;;;;;12.57;2.43;;;;;;;-143.84;39.00;44999.56;5074072;28;20441;-77
2022/07/04 02:14:28;;;;;;;3.30;3.00;;;;;;;-143.84;40.30;44997.66;5074184;28;20423;-77
2022/07/04 02:16:55;;;;;;;5.40;2.80;;;;;;;-143.84;40.50;44978.63;5073435;28;20436;-77
2022/07/04 02:19:22;;;;;;;4.83;2.40;;;;;;;-143.84;40.59;44984.31;5073811;28;20437;-77
2022/07/04 02:21:50;;;;;;;3.33;2.60;;;;;;;-143.84;40.37;44967.19;5073199;28;20433;-77
2022/07/04 02:24:17;;;;;;;4.13;2.90;;;;;;;-143.84;39.95;45012.88;5073145;28;20444;-76
2022/07/04 02:26:46;;;;;;;2.97;2.73;;;;;;;-143.84;40.31;44999.56;5073621;28;21040;-77
2022/07/04 02:29:13;;;;;;;3.40;2.70;;;;;;;-143.84;41.27;45005.28;5072572;28;20855;-77
2022/07/04 02:31:40;;;;;;;3.13;2.83;;;;;;;-143.84;41.79;44997.66;5073171;28;20463;-77
2022/07/04 02:34:07;;;;;;;3.23;2.93;;;;;;;-143.84;41.72;45003.38;5073331;28;20429;-78
2022/07/04 02:36:34;;;;;;;6.00;3.17;;;;;;;-143.84;41.90;44988.13;5072969;28;20502;-76
2022/07/04 02:39:02;;;;;;;3.13;2.53;;;;;;;-143.84;42.22;44997.66;5073419;28;20425;-77
2022/07/04 02:41:29;;;;;;;5.67;3.00;;;;;;;-143.84;42.34;44986.22;5073321;28;20452;-77
2022/07/04 02:43:57;;;;;;;3.00;2.60;;;;;;;-143.84;42.87;44993.84;5073079;28;20444;-78
2022/07/04 02:46:25;;;;;;;7.43;2.90;;;;;;;-143.84;42.78;45003.38;5071798;28;21004;-77
2022/07/04 02:48:52;;;;;;;7.20;3.10;;;;;;;-143.84;43.25;44980.53;5072586;28;20437;-77
2022/07/04 02:51:19;;;;;;;3.10;2.90;;;;;;;-143.84;44.19;45010.97;5073568;28;20455;-77
2022/07/04 02:53:46;;;;;;;4.50;2.80;;;;;;;-143.84;45.21;44969.09;5072928;28;20440;-77
2022/07/04 02:56:13;;;;;;;3.03;2.80;;;;;;;-143.84;45.86;45009.09;5072925;28;20445;-77
2022/07/04 02:58:40;;;;;;;4.00;3.50;;;;;;;-143.84;46.50;44993.84;5072721;28;20430;-76
2022/07/04 03:01:09;;;;;;;4.23;3.67;;;;;;;-143.84;46.97;45026.22;5073259;28;20455;-76
2022/07/04 03:03:36;;;;;;;3.60;2.70;;;;;;;-143.84;47.01;45020.50;5072714;28;20433;-77
2022/07/04 03:06:03;;;;;;;4.40;2.27;;;;;;;-143.84;47.70;45030.03;5072279;28;20526;-77
2022/07/04 03:08:33;;;;;;;6.70;2.70;;;;;;;-143.84;48.40;44982.41;5071930;28;20452;-75
2022/07/04 03:11:01;;;;;;;6.17;2.83;;;;;;;-143.84;49.67;45003.38;5071825;28;20498;-76
2022/07/04 03:13:28;;;;;;;4.13;3.30;;;;;;;-143.84;51.13;45005.28;5071904;28;20869;-76
2022/07/04 03:15:55;;;;;;;6.63;3.33;;;;;;;-143.84;52.30;45005.28;5071270;28;20509;-75
2022/07/04 03:18:24;;;;;;;7.97;3.60;;;;;;;-143.84;53.11;45014.78;5071277;28;20449;-78
2022/07/04 03:20:52;;;;;;;10.60;3.43;;;;;;;-143.84;53.99;44986.22;5072348;28;20443;-80
2022/07/04 03:23:19;;;;;;;7.67;3.57;;;;;;;-143.84;54.78;44971.00;5072980;28;20436;-86
2022/07/04 03:25:46;;;;;;;5.83;3.77;;;;;;;-143.84;55.49;44999.56;5072585;28;20501;-78
2022/07/04 03:28:14;;;;;;;10.37;4.07;;;;;;;-143.84;57.14;44988.13;5073215;28;20491;-79
2022/07/04 03:30:41;;;;;;;4.53;3.70;;;;;;;-143.84;57.97;44990.03;5072755;28;20499;-79
2022/07/04 03:33:08;;;;;;;3.73;3.40;;;;;;;-143.84;58.53;44997.66;5072217;28;20479;-79
2022/07/04 03:35:37;;;;;;;3.63;3.37;;;;;;;-143.84;59.24;45010.97;5072078;28;20429;-79
2022/07/04 03:38:04;;;;;;;3.57;3.30;;;;;;;-143.84;60.05;44984.31;5071982;28;20437;-79
2022/07/04 03:40:32;;;;;;;8.30;3.50;;;;;;;-143.84;61.78;45009.09;5072301;28;20988;-80
2022/07/04 03:42:59;;;;;;;8.10;4.50;;;;;;;-143.84;61.52;44974.81;5072652;28;20468;-79
2022/07/04 03:45:27;;;;;;;5.10;3.53;;;;;;;-143.84;63.59;44984.31;5072018;28;20464;-79
2022/07/04 03:47:54;;;;;;;5.13;4.70;;;;;;;-143.84;60.64;44959.56;5072439;28;20498;-79
2022/07/04 03:50:21;;;;;;;7.07;4.73;;;;;;;-143.84;58.38;44957.66;5072675;28;20802;-80
2022/07/04 03:52:50;;;;;;;12.47;11.27;;;;;;;-143.84;55.64;44965.28;5072186;28;20510;-79
2022/07/04 03:55:17;;;;;;;12.93;9.80;;;;;;;-143.84;52.64;44946.25;5063207;28;20433;-78
2022/07/04 03:57:44;;;;;;;9.27;7.83;;;;;;;-143.84;50.77;44923.41;5072691;28;20442;-78
2022/07/04 04:00:12;;;;;;;9.10;4.80;;;;;;;-143.84;48.20;44898.66;5075580;28;20471;-78
2022/07/04 04:02:40;;;;;;;14.77;3.87;;;;;;;-143.84;47.29;44904.34;5074969;28;21142;-78
2022/07/04 04:07:57;;;;;;;5.80;3.10;;;;;;;-143.84;44.84;44904.34;5075522;28;20412;-82
2022/07/04 04:10:25;;;;;;;6.80;2.90;;;;;;;-143.84;44.01;44900.53;5075663;28;20455;-82
2022/07/04 04:12:52;;;;;;;5.07;2.70;;;;;;;-143.84;43.44;44873.88;5075641;28;20437;-82
2022/07/04 04:15:20;;;;;;;6.47;2.63;;;;;;;-143.84;42.76;44900.53;5075551;28;20437;-82
2022/07/04 04:17:47;;;;;;;10.73;2.97;;;;;;;-143.84;42.10;44892.94;5075641;28;20437;-82
2022/07/04 04:20:14;;;;;;;4.90;3.37;;;;;;;-143.84;41.53;44873.88;5075275;28;20424;-82
2022/07/04 04:22:42;;;;;;;9.10;3.30;;;;;;;-143.84;41.57;44871.97;5075556;28;20436;-82
2022/07/04 04:25:11;;;;;;;8.43;3.33;;;;;;;-143.84;40.99;44858.66;5072277;28;20484;-82
2022/07/04 04:27:39;;;;;;;3.30;2.43;;;;;;;-143.84;39.60;44866.28;5070004;28;20454;-82
2022/07/04 04:30:07;;;;;;;6.70;3.63;;;;;;;-143.84;40.12;44864.38;5075376;28;20490;-82
2022/07/04 04:32:34;;;;;;;5.07;2.80;;;;;;;-143.84;39.49;44832.00;5075129;28;20815;-82
2022/07/04 04:35:02;;;;;;;3.00;2.70;;;;;;;-143.84;39.42;44851.03;5075146;28;20433;-83
2022/07/04 04:37:29;;;;;;;11.20;2.60;;;;;;;-143.84;38.36;44877.69;5074971;28;20436;-83
2022/07/04 04:39:56;;;;;;;2.83;2.63;;;;;;;-143.84;38.08;44841.53;5075138;28;20433;-82
2022/07/04 04:42:25;;;;;;;8.13;3.17;;;;;;;-143.84;37.95;44849.13;5075140;28;20417;-82
2022/07/04 04:44:52;;;;;;;6.40;2.80;;;;;;;-143.84;37.16;44847.22;5075021;28;21062;-83
2022/07/04 04:47:19;;;;;;;3.00;2.80;;;;;;;-143.84;37.64;44870.09;5074863;28;21121;-82
2022/07/04 04:49:47;;;;;;;6.37;2.73;;;;;;;-143.84;38.12;44833.91;5074834;28;20465;-82
2022/07/04 04:52:14;;;;;;;4.27;2.70;;;;;;;-143.84;37.85;44873.88;5074754;28;20520;-82
2022/07/04 04:54:41;;;;;;;4.13;2.83;;;;;;;-143.84;37.92;44871.97;5074974;28;20448;-82
2022/07/04 04:57:09;;;;;;;4.27;2.80;;;;;;;-143.84;37.41;44885.31;5074538;28;20815;-82
2022/07/04 04:59:37;;;;;;;5.13;2.90;;;;;;;-143.84;37.78;44877.69;5075455;28;20440;-80
2022/07/04 05:02:05;;;;;;;6.30;3.00;;;;;;;-143.84;38.77;44868.19;5074759;28;20445;-79
2022/07/04 05:04:32;;;;;;;4.23;2.90;;;;;;;-143.84;39.06;44889.13;5072278;28;20437;-79
2022/07/04 05:06:59;;;;;;;5.33;3.20;;;;;;;-143.84;38.09;44868.19;5072041;28;20542;-79
2022/07/04 05:09:26;;;;;;;21.73;2.70;;;;;;;-143.84;38.63;44862.47;5070854;28;20447;-79
2022/07/04 05:11:53;;;;;;;10.40;4.00;;;;;;;-143.84;37.70;44866.28;5071819;28;21002;-79
2022/07/04 05:14:21;;;;;;;4.53;2.87;;;;;;;-143.84;38.30;44883.41;5071606;28;20421;-79
2022/07/04 05:16:49;;;;;;;9.33;3.60;;;;;;;-143.84;37.98;44851.03;5071876;28;20498;-79
2022/07/04 05:19:16;;;;;;;7.80;3.27;;;;;;;-143.84;37.41;44868.19;5072452;28;20441;-79
2022/07/04 05:21:44;;;;;;;11.20;2.80;;;;;;;-143.84;38.14;44856.75;5071979;28;20618;-79
2022/07/04 05:24:11;;;;;;;5.37;2.83;;;;;;;-143.84;38.75;44864.38;5072165;28;20498;-79
2022/07/04 05:26:39;;;;;;;3.17;2.70;;;;;;;-143.84;38.50;44832.00;5063897;28;20492;-79
2022/07/04 05:29:06;;;;;;;7.20;2.93;;;;;;;-143.84;38.94;44862.47;5073166;28;20433;-79
2022/07/04 05:31:33;;;;;;;5.20;2.80;;;;;;;-143.84;38.44;44862.47;5073013;28;20425;-79
2022/07/04 05:34:01;;;;;;;7.57;2.53;;;;;;;-143.84;38.59;44891.03;5072751;28;20445;-79
2022/07/04 05:36:29;;;;;;;8.40;2.90;;;;;;;-143.84;39.01;44885.31;5072700;28;20441;-79
2022/07/04 05:38:57;;;;;;;4.60;3.00;;;;;;;-143.84;38.46;44870.09;5073281;28;21289;-78
2022/07/04 05:41:25;;;;;;;8.80;2.93;;;;;;;-143.84;38.80;44870.09;5072340;28;20436;-78
2022/07/04 05:43:52;;;;;;;9.43;3.57;;;;;;;-143.84;39.15;44839.63;5072462;28;20514;-79
2022/07/04 05:46:19;;;;;;;3.37;2.77;;;;;;;-143.84;39.00;44862.47;5072420;28;20481;-79
2022/07/04 05:48:46;;;;;;;11.57;3.10;;;;;;;-143.84;37.90;44845.31;5072758;28;20936;-79
2022/07/04 05:51:15;;;;;;;10.37;2.80;;;;;;;-143.84;38.34;44866.28;5072627;28;20429;-79
2022/07/04 05:53:42;;;;;;;5.70;3.00;;;;;;;-143.84;38.86;44891.03;5072376;28;20441;-78
2022/07/04 05:56:10;;;;;;;4.33;2.53;;;;;;;-143.84;39.22;44854.84;5072159;28;20456;-79
2022/07/04 05:58:37;;;;;;;4.00;3.00;;;;;;;-143.84;38.91;44849.13;5072606;28;20780;-79
2022/07/04 06:01:04;;;;;;;7.90;2.60;;;;;;;-143.84;39.06;44871.97;5072362;28;20437;-79
2022/07/04 06:03:31;;;;;;;7.70;3.20;;;;;;;-143.84;38.38;44837.72;5072400;28;20780;-79
2022/07/04 06:05:59;;;;;;;5.23;2.20;;;;;;;-143.84;38.24;44860.56;5072015;28;20480;-79
2022/07/04 06:08:28;;;;;;;9.53;2.87;;;;;;;-143.84;38.08;44843.44;5072282;28;20448;-79
2022/07/04 06:10:55;;;;;;;13.03;3.10;;;;;;;-143.84;37.30;44862.47;5072471;28;20445;-79
2022/07/04 06:13:22;;;;;;;3.83;2.77;;;;;;;-143.84;37.55;44841.53;5072234;28;20490;-79
2022/07/04 06:15:50;;;;;;;11.03;3.43;;;;;;;-143.84;37.50;44812.97;5072432;28;20460;-79
2022/07/04 06:18:18;;;;;;;7.53;2.60;;;;;;;-143.84;37.10;44833.91;5072650;28;20862;-79
2022/07/04 06:20:45;;;;;;;5.97;2.80;;;;;;;-143.84;36.89;44812.97;5071725;28;20499;-79
2022/07/04 06:23:12;;;;;;;2.47;2.27;;;;;;;-143.84;37.25;44812.97;5072036;28;20436;-79
2022/07/04 06:25:41;;;;;;;6.27;2.60;;;;;;;-143.84;38.28;44847.22;5065095;28;20636;-79
2022/07/04 06:28:08;;;;;;;2.80;2.37;;;;;;;-143.84;38.16;44852.94;5071165;28;20445;-79
2022/07/04 06:30:35;;;;;;;7.50;2.90;;;;;;;-143.84;37.87;44830.09;5071918;28;20494;-79
2022/07/04 06:33:03;;;;;;;6.00;2.33;;;;;;;-143.84;38.24;44862.47;5071698;28;20441;-79
2022/07/04 06:35:45;;;;;;;6.83;2.50;;;;;;;-143.84;38.44;44860.56;5072093;28;20437;-79
2022/07/04 06:38:14;;;;;;;4.80;2.50;;;;;;;-143.84;38.63;44852.94;5071921;28;20440;-79
2022/07/04 06:40:43;;;;;;;3.23;2.37;;;;;;;-143.84;38.23;44854.84;5071748;28;20429;-79
2022/07/04 06:43:11;;;;;;;5.40;2.90;;;;;;;-143.84;38.49;44828.19;5071755;28;21243;-79
2022/07/04 06:45:39;;;;;;;4.13;2.83;;;;;;;-143.84;37.51;44824.38;5070880;28;20490;-79
2022/07/04 06:48:07;;;;;;;5.37;1.93;;;;;;;-143.84;37.61;44856.75;5071319;28;20441;-79
2022/07/04 06:50:35;;;;;;;3.40;2.80;;;;;;;-143.84;38.29;44847.22;5071356;28;20441;-79
2022/07/04 06:53:03;;;;;;;6.13;2.90;;;;;;;-143.84;38.34;44837.72;5070875;28;20437;-79
2022/07/04 06:55:37;;;;;;;4.60;2.27;;;;;;;-143.84;37.47;44843.44;5070252;28;20441;-79
2022/07/04 06:58:06;;;;;;;2.53;2.33;;;;;;;-143.84;37.22;44835.81;5070457;28;20429;-79
2022/07/04 07:00:34;;;;;;;5.07;2.67;;;;;;;-143.84;37.33;44828.19;5070813;28;20429;-79
2022/07/04 07:03:02;;;;;;;6.13;2.40;;;;;;;-143.84;36.88;44839.63;5070507;28;20437;-79
2022/07/04 07:05:30;;;;;;;4.33;2.40;;;;;;;-143.84;37.81;44833.91;5069970;28;20441;-79
2022/07/04 07:07:57;;;;;;;16.30;2.70;;;;;;;-143.84;38.57;44826.28;5071049;28;20421;-79
2022/07/04 07:10:25;;;;;;;3.23;2.30;;;;;;;-143.84;37.83;44845.31;5070918;28;21018;-79
2022/07/04 07:12:52;;;;;;;4.27;2.60;;;;;;;-143.84;37.83;44843.44;5070812;28;20445;-79
2022/07/04 07:15:21;;;;;;;3.63;2.20;;;;;;;-143.84;38.09;44843.44;5071246;28;20436;-79
2022/07/04 07:17:48;;;;;;;6.30;2.77;;;;;;;-143.84;38.39;44830.09;5071195;28;20490;-79
2022/07/04 07:20:15;;;;;;;10.43;2.40;;;;;;;-143.84;38.43;44835.81;5071262;28;20847;-79
2022/07/04 07:22:43;;;;;;;6.30;2.97;;;;;;;-143.84;37.56;44854.84;5071243;28;20440;-79
2022/07/04 07:25:10;;;;;;;4.90;2.87;;;;;;;-143.84;38.24;44832.00;5071202;28;20480;-79
2022/07/04 07:27:38;;;;;;;14.80;4.30;;;;;;;-143.84;38.85;44826.28;5070937;28;20531;-79
2022/07/04 07:30:06;;;;;;;4.20;2.60;;;;;;;-143.84;39.18;44816.78;5070787;28;20436;-79
2022/07/04 07:32:35;;;;;;;4.30;2.50;;;;;;;-143.84;38.81;44818.66;5070566;28;20432;-79
2022/07/04 07:35:03;;;;;;;8.40;2.70;;;;;;;-143.84;39.03;44854.84;5071134;28;20507;-79
2022/07/04 07:37:30;;;;;;;8.47;2.63;;;;;;;-143.84;39.26;44896.75;5071075;28;20435;-79
2022/07/04 07:39:57;;;;;;;6.30;2.70;;;;;;;-143.84;38.56;44801.53;5071017;28;20425;-79
2022/07/04 07:42:25;;;;;;;3.90;2.30;;;;;;;-143.84;38.06;44852.94;5070758;28;20443;-79
2022/07/04 07:44:53;;;;;;;2.30;2.20;;;;;;;-143.84;37.80;44833.91;5071040;28;20432;-79
2022/07/04 07:47:20;;;;;;;2.53;2.30;;;;;;;-143.84;38.01;44843.44;5070485;28;20559;-79
2022/07/04 07:49:48;;;;;;;4.57;2.50;;;;;;;-143.84;38.41;44830.09;5070851;28;20441;-79
2022/07/04 07:52:17;;;;;;;4.83;2.50;;;;;;;-143.84;38.37;44839.63;5070986;28;20456;-79
2022/07/04 07:54:44;;;;;;;4.70;2.30;;;;;;;-143.84;38.04;44832.00;5070837;28;20449;-79
2022/07/04 07:57:12;;;;;;;2.53;2.33;;;;;;;-143.84;37.67;44782.50;5070794;28;20474;-79
2022/07/04 07:59:39;;;;;;;4.77;2.30;;;;;;;-143.84;38.41;44811.06;5070213;28;20782;-79
2022/07/04 08:02:06;;;;;;;15.10;3.37;;;;;;;-143.84;35.17;44839.63;5070847;28;20496;-78
2022/07/04 08:04:35;;;;;;;5.27;2.27;;;;;;;-143.84;34.40;44822.47;5070737;28;20441;-78
2022/07/04 08:07:05;;;;;;;5.20;1.90;;;;;;;-143.84;36.62;44843.44;5070269;28;20909;-78
2022/07/04 08:09:32;;;;;;;2.67;2.47;;;;;;;-143.84;37.30;44832.00;5070453;28;20986;-78
2022/07/04 08:12:00;;;;;;;5.53;2.47;;;;;;;-143.84;34.39;44835.81;5070533;28;20475;-78
2022/07/04 08:14:28;;;;;;;9.53;2.40;;;;;;;-143.84;35.66;44811.06;5070379;28;20436;-78
2022/07/04 08:16:56;;;;;;;5.30;3.53;;;;;;;-143.84;37.29;44837.72;5070851;28;20436;-78
2022/07/04 08:19:24;;;;;;;3.03;2.37;;;;;;;-143.84;37.90;44856.75;5070043;28;20479;-78
2022/07/04 08:21:51;;;;;;;6.97;2.60;;;;;;;-143.84;36.81;44851.03;5070095;28;20448;-77
2022/07/04 08:24:20;;;;;;;8.40;1.97;;;;;;;-143.84;34.09;44858.66;5070168;28;21275;-77
2022/07/04 08:26:47;;;;;;;12.13;2.20;;;;;;;-143.84;34.42;44864.38;5070123;28;20488;-78
2022/07/04 08:29:15;;;;;;;2.53;2.03;;;;;;;-143.84;36.37;44854.84;5070123;28;20425;-77
2022/07/04 08:31:42;;;;;;;9.63;2.53;;;;;;;-143.84;36.61;44812.97;5070122;28;20433;-78
2022/07/04 08:34:09;;;;;;;7.70;2.43;;;;;;;-143.84;36.65;44847.22;5069803;28;20514;-78
2022/07/04 08:36:37;;;;;;;7.20;2.10;;;;;;;-143.84;36.49;44849.13;5069838;28;20445;-78
2022/07/04 08:39:04;;;;;;;8.87;2.67;;;;;;;-143.84;34.62;44856.75;5069965;28;20463;-78
2022/07/04 08:41:39;;;;;;;3.80;2.23;;;;;;;-143.84;34.64;44843.44;5069790;28;20458;-78
2022/07/04 08:44:08;;;;;;;2.07;1.83;;;;;;;-143.84;33.83;44824.38;5070187;28;20531;-78
2022/07/04 08:46:36;;;;;;;6.10;2.10;;;;;;;-143.84;32.61;44828.19;5073551;28;20487;-78
2022/07/04 08:49:11;;;;;;;5.20;2.20;;;;;;;-143.84;32.62;44830.09;5053790;28;21041;-78
2022/07/04 08:51:45;;;;;;;6.03;1.60;;;;;;;-143.84;31.60;44790.13;5061867;28;20441;-81
2022/07/04 08:59:48;;;;;;;4.77;2.10;;;;;;;-143.84;29.58;44830.09;5073802;28;20483;-79
2022/07/04 09:02:18;;;;;;;7.33;2.57;;;;;;;-143.84;29.87;44793.91;5073690;28;20439;-79
2022/07/04 09:04:45;;;;;;;5.63;2.30;;;;;;;-143.84;28.99;44778.69;5073716;28;20447;-78
2022/07/04 09:07:13;;;;;;;3.20;1.90;;;;;;;-143.84;29.54;44786.31;5072748;28;20472;-79
2022/07/04 09:09:41;;;;;;;1.37;1.27;;;;;;;-143.84;30.25;44832.00;5072393;28;20452;-79
2022/07/04 09:12:11;;;;;;;2.67;1.60;;;;;;;-143.84;30.58;44822.47;5072786;28;21250;-79
2022/07/04 09:14:39;;;;;;;2.33;1.93;;;;;;;-143.84;29.98;44784.41;5072386;28;20452;-79
2022/07/04 09:17:07;;;;;;;4.73;2.00;;;;;;;-143.84;30.72;44795.81;5073140;28;20868;-79
2022/07/04 09:19:35;;;;;;;10.47;2.00;;;;;;;-143.84;30.04;44786.31;5072856;28;20965;-79
2022/07/04 09:22:10;;;;;;;7.43;2.30;;;;;;;-143.84;30.63;44822.47;5073555;28;20443;-79
2022/07/04 09:24:47;;;;;;;5.07;2.10;;;;;;;-143.84;32.15;44780.59;5073540;28;20435;-79
2022/07/04 09:27:32;;;;;;;3.87;2.10;;;;;;;-143.84;31.72;44774.88;5073512;28;20488;-79
2022/07/04 09:29:59;;;;;;;2.73;2.20;;;;;;;-143.84;33.54;44790.13;5073856;28;20800;-79
2022/07/04 09:32:36;;;;;;;2.93;1.80;;;;;;;-143.84;33.25;44824.38;5072714;28;20429;-79
2022/07/04 09:35:04;;;;;;;6.23;1.90;;;;;;;-143.84;33.14;44786.31;5072297;28;20436;-79
2022/07/04 09:37:37;;;;;;;2.00;1.80;;;;;;;-143.84;34.62;44856.75;5072390;28;20445;-79
2022/07/04 09:40:07;;;;;;;3.73;1.80;;;;;;;-143.84;31.28;44843.44;5072720;28;20520;-79
2022/07/04 09:42:42;;;;;;;7.10;1.90;;;;;;;-143.84;33.00;44835.81;5072840;28;20460;-79
2022/07/04 09:45:12;;;;;;;5.93;1.70;;;;;;;-143.84;30.46;44839.63;5073477;28;20425;-79
2022/07/04 09:47:41;;;;;;;4.50;1.57;;;;;;;-143.84;28.86;44816.78;5072925;28;20476;-82
2022/07/04 09:50:10;;;;;;;3.00;1.37;;;;;;;-143.84;28.41;44792.00;5072506;28;20451;-78
2022/07/04 09:52:53;;;;;;;1.63;1.47;;;;;;;-143.84;27.20;44835.81;5072138;28;20961;-79
2022/07/04 09:55:25;;;;;;;3.20;1.80;;;;;;;-143.84;31.13;44845.31;5069004;28;21130;-79
2022/07/04 09:57:55;;;;;;;10.83;1.90;;;;;;;-143.84;29.15;44797.72;5071479;28;20799;-79
2022/07/04 10:00:26;;;;;;;2.80;1.60;;;;;;;-143.84;30.00;44799.63;5065304;28;20449;-79
2022/07/04 10:02:54;;;;;;;4.00;1.57;;;;;;;-143.84;30.21;44824.38;5064465;28;20459;-79
2022/07/04 10:05:23;;;;;;;10.83;2.13;;;;;;;-143.84;30.44;44797.72;5065386;28;20451;-79
2022/07/04 10:07:50;;;;;;;10.63;1.73;;;;;;;-143.84;29.51;44793.91;5066015;28;20477;-79
2022/07/04 10:10:31;;;;;;;3.73;1.50;;;;;;;-143.84;29.53;44841.53;5067166;28;20924;-82
2022/07/04 10:13:02;;;;;;;3.90;1.53;;;;;;;-143.84;28.96;44795.81;5066688;28;20445;-82
2022/07/04 10:15:32;;;;;;;4.23;1.23;;;;;;;-143.84;28.11;44818.66;5067281;28;21008;-82
2022/07/04 10:18:01;;;;;;;1.43;1.33;;;;;;;-143.84;27.22;44826.28;5068077;28;20455;-80
2022/07/04 10:20:28;;;;;;;1.50;1.40;;;;;;;-143.84;28.09;44816.78;5067344;28;20507;-79
2022/07/04 10:22:55;;;;;;;3.23;1.63;;;;;;;-143.84;28.04;44843.44;5064196;28;20523;-79
2022/07/04 10:25:23;;;;;;;2.97;1.70;;;;;;;-143.84;29.05;44788.22;5066113;28;20998;-79
2022/07/04 10:27:51;;;;;;;2.33;1.50;;;;;;;-143.84;28.91;44818.66;5066322;28;20487;-79
2022/07/04 10:30:25;;;;;;;1.93;1.63;;;;;;;-143.84;30.09;44788.22;5065714;28;21199;-78
2022/07/04 10:32:53;;;;;;;5.33;1.50;;;;;;;-143.84;28.67;44801.53;5063027;28;20518;-79
2022/07/04 10:35:48;;;;;;;2.03;1.83;;;;;;;-143.84;29.75;44807.25;5065149;28;20506;-79
2022/07/04 10:38:17;;;;;;;8.20;2.00;;;;;;;-143.84;30.10;44839.63;5068310;28;20490;-78
2022/07/04 10:40:50;;;;;;;3.10;1.67;;;;;;;-143.84;30.90;44849.13;5065171;28;20436;-78
2022/07/04 10:43:55;;;;;;;2.40;1.80;;;;;;;-143.84;29.54;44849.13;5061608;28;20456;-79
2022/07/04 10:46:49;;;;;;;2.43;1.83;;;;;;;-143.84;30.32;44847.22;5060621;28;21020;-79
2022/07/04 10:49:22;;;;;;;2.67;2.00;;;;;;;-143.84;30.87;44837.72;5061488;28;20445;-79
2022/07/04 10:51:50;;;;;;;3.10;1.80;;;;;;;-143.84;31.03;44832.00;5067332;28;20433;-79
2022/07/04 10:54:20;;;;;;;6.70;1.67;;;;;;;-143.84;31.67;44799.63;5065631;28;20436;-79
2022/07/04 10:56:53;;;;;;;2.40;2.10;;;;;;;-143.84;32.07;44847.22;5068035;28;20445;-79
2022/07/04 10:59:26;;;;;;;3.97;1.93;;;;;;;-143.84;32.24;44812.97;5059894;28;20451;-78
2022/07/04 11:02:25;;;;;;;2.43;1.50;;;;;;;-143.84;31.32;44856.75;5067578;28;20893;-79
2022/07/04 11:04:55;;;;;;;6.97;1.83;;;;;;;-143.84;31.64;44849.13;5065514;28;20449;-80
2022/07/04 11:07:23;;;;;;;7.90;1.77;;;;;;;-143.84;32.67;44826.28;5067244;28;20916;-80
2022/07/04 11:10:22;;;;;;;3.00;1.57;;;;;;;-143.84;30.82;44795.81;5064981;28;20437;-78
2022/07/04 11:13:07;;;;;;;2.20;1.60;;;;;;;-143.84;31.61;44849.13;5064370;28;20544;-79
2022/07/04 11:16:07;;;;;;;8.37;1.90;;;;;;;-143.84;33.31;44801.53;5065539;28;20444;-79
2022/07/04 11:18:44;;;;;;;4.80;2.00;;;;;;;-143.84;32.23;44841.53;5060342;28;20471;-79
2022/07/04 11:21:22;;;;;;;10.90;2.23;;;;;;;-143.84;32.05;44839.63;5056826;28;20445;-79
2022/07/04 11:23:56;;;;;;;2.23;2.07;;;;;;;-143.84;32.04;44837.72;5064041;28;20473;-79
2022/07/04 11:26:25;;;;;;;3.00;2.07;;;;;;;-143.84;31.41;44837.72;5056211;28;20527;-78
2022/07/04 11:28:52;;;;;;;4.83;1.90;;;;;;;-143.84;32.17;44837.72;5062582;28;20476;-78
2022/07/04 11:31:20;;;;;;;2.50;2.30;;;;;;;-143.84;33.20;44837.72;5065220;28;20495;-79
2022/07/04 11:33:56;;;;;;;5.90;2.00;;;;;;;-143.84;35.14;44837.72;5063026;28;20441;-79
2022/07/04 11:36:23;;;;;;;9.37;1.80;;;;;;;-143.84;35.18;44847.22;5065584;28;20443;-79
2022/07/04 11:38:56;;;;;;;2.30;1.83;;;;;;;-143.84;34.62;44858.66;5063376;28;20523;-78